Time;durP1;ratioP1;P1;durP2;ratioP2;P2;SDS_P1;SDS_P2;PMS_P1;PMS_P2;Temp;Humidity;BMP_temperature;BMP_pressure;BME280_temperature;BME280_humidity;BME280_pressure;Samples;Min_cycle;Max_cycle;Signal;HPM_P1;HPM_P2
2022/10/29 00:01:18;;;;;;;;;;;;;;;4.95;100.00;98535.10;107669;1268;69084;-69
2022/10/29 00:03:49;;;;;;;;;;;;;;;4.93;100.00;98530.49;107602;1268;69314;-69
2022/10/29 00:06:19;;;;;;;;;;;;;;;4.91;100.00;98529.02;107643;1268;59779;-69
2022/10/29 00:08:48;;;;;;;;;;;;;;;4.89;100.00;98528.19;107652;1268;59689;-69
2022/10/29 00:11:19;;;;;;;;;;;;;;;4.89;100.00;98525.95;107674;1269;71232;-69
2022/10/29 00:13:52;;;;;;;;;;;;;;;4.88;98.18;98527.34;107671;1268;69810;-69
2022/10/29 00:16:23;;;;;;;;;;;;;;;4.90;98.19;98534.05;107621;1268;67448;-69
2022/10/29 00:18:53;;;;;;;;;;;;;;;4.89;99.84;98535.11;107681;1268;59741;-69
2022/10/29 00:21:24;;;;;;;;;;;;;;;4.88;100.00;98535.84;107672;1264;59727;-69
2022/10/29 00:23:54;;;;;;;;;;;;;;;4.82;100.00;98536.20;107693;1268;71471;-69
2022/10/29 00:26:22;;;;;;;;;;;;;;;4.75;100.00;98531.04;107676;1264;69881;-69
2022/10/29 00:28:52;;;;;;;;;;;;;;;4.73;100.00;98532.16;107633;1265;69855;-69
2022/10/29 00:31:23;;;;;;;;;;;;;;;4.72;99.77;98531.33;107666;1269;59777;-69
2022/10/29 00:33:54;;;;;;;;;;;;;;;4.74;100.00;98534.56;107686;1265;59680;-69
2022/10/29 00:36:25;;;;;;;;;;;;;;;4.70;100.00;98532.61;107669;1268;70631;-69
2022/10/29 00:38:55;;;;;;;;;;;;;;;4.68;100.00;98534.56;107655;1265;68676;-69
2022/10/29 00:41:26;;;;;;;;;;;;;;;4.66;100.00;98531.15;107655;1264;68708;-69
2022/10/29 00:44:14;;;;;;;;;;;;;;;4.64;100.00;98531.08;107633;1268;59708;-70
2022/10/29 00:46:46;;;;;;;;;;;;;;;4.62;100.00;98532.84;107668;1268;59716;-68
2022/10/29 00:49:17;;;;;;;;;;;;;;;4.63;100.00;98534.39;107652;1268;71404;-68
2022/10/29 00:51:48;;;;;;;;;;;;;;;4.61;100.00;98532.87;107663;1268;68297;-68
2022/10/29 00:54:18;;;;;;;;;;;;;;;4.59;100.00;98534.13;107639;1268;69863;-68
2022/10/29 00:56:53;;;;;;;;;;;;;;;4.59;100.00;98533.98;107626;1265;59761;-68
2022/10/29 00:59:25;;;;;;;;;;;;;;;4.56;100.00;98533.52;107671;1265;59667;-68
2022/10/29 01:01:55;;;;;;;;;;;;;;;4.55;100.00;98530.48;107673;1264;70623;-68
2022/10/29 01:04:25;;;;;;;;;;;;;;;4.55;100.00;98530.81;107645;1265;69112;-68
2022/10/29 01:06:54;;;;;;;;;;;;;;;4.56;100.00;98526.98;107662;1268;69420;-68
2022/10/29 01:09:24;;;;;;;;;;;;;;;4.51;100.00;98523.34;107647;1268;59689;-68
2022/10/29 01:12:05;;;;;;;;;;;;;;;4.47;100.00;98521.57;107714;1264;59802;-68
2022/10/29 01:14:38;;;;;;;;;;;;;;;4.45;100.00;98516.11;107663;1265;71885;-68
2022/10/29 01:17:12;;;;;;;;;;;;;;;4.44;100.00;98511.83;107674;1268;69068;-68
2022/10/29 01:20:05;;;;;;;;;;;;;;;4.41;100.00;98510.89;107663;1266;68916;-68
2022/10/29 01:22:55;;;;;;;;;;;;;;;4.36;100.00;98510.00;107668;1268;59709;-68
2022/10/29 01:25:43;;;;;;;;;;;;;;;4.32;100.00;98509.41;107612;1268;59740;-68
2022/10/29 01:28:32;;;;;;;;;;;;;;;4.29;100.00;98510.21;107678;1264;71277;-68
2022/10/29 01:31:04;;;;;;;;;;;;;;;4.27;100.00;98510.95;107654;1268;69884;-68
2022/10/29 01:33:54;;;;;;;;;;;;;;;4.26;100.00;98512.03;107660;1265;69136;-68
2022/10/29 01:36:25;;;;;;;;;;;;;;;4.24;100.00;98511.39;107641;1261;59734;-68
2022/10/29 01:39:30;;;;;;;;;;;;;;;4.21;100.00;98512.88;107652;1266;59725;-69
2022/10/29 01:42:05;;;;;;;;;;;;;;;4.19;100.00;98509.84;107483;1272;70388;-68
2022/10/29 01:44:34;;;;;;;;;;;;;;;4.14;100.00;98503.77;107638;1268;69241;-68
2022/10/29 01:47:05;;;;;;;;;;;;;;;4.07;100.00;98503.26;107664;1268;69249;-70
2022/10/29 01:49:39;;;;;;;;;;;;;;;4.04;100.00;98501.12;107602;1268;59784;-68
2022/10/29 01:52:09;;;;;;;;;;;;;;;3.99;100.00;98494.19;107671;1261;59761;-68
2022/10/29 01:54:41;;;;;;;;;;;;;;;3.93;100.00;98489.02;107668;1268;71453;-68
2022/10/29 01:57:29;;;;;;;;;;;;;;;3.89;100.00;98487.95;107661;1264;68832;-68
2022/10/29 02:00:02;;;;;;;;;;;;;;;3.85;100.00;98487.88;107654;1268;69495;-68
2022/10/29 02:02:45;;;;;;;;;;;;;;;3.84;100.00;98483.41;107656;1264;59685;-68
2022/10/29 02:05:17;;;;;;;;;;;;;;;3.83;100.00;98480.14;107662;1266;59759;-68
2022/10/29 02:07:50;;;;;;;;;;;;;;;3.82;100.00;98481.23;107708;1265;70527;-68
2022/10/29 02:10:20;;;;;;;;;;;;;;;3.82;99.81;98481.40;107682;1265;68222;-68
2022/10/29 02:12:51;;;;;;;;;;;;;;;3.79;98.25;98476.99;107640;1268;69288;-68
2022/10/29 02:15:33;;;;;;;;;;;;;;;3.78;100.00;98476.69;107642;1265;59777;-69
2022/10/29 02:18:05;;;;;;;;;;;;;;;3.74;98.64;98478.52;107654;1265;59660;-69
2022/10/29 02:20:34;;;;;;;;;;;;;;;3.70;97.49;98478.47;107685;1264;71302;-68
2022/10/29 02:23:04;;;;;;;;;;;;;;;3.67;99.59;98478.71;107616;1264;69111;-67
2022/10/29 02:25:34;;;;;;;;;;;;;;;3.68;100.00;98480.08;107612;1265;69946;-67
2022/10/29 02:28:04;;;;;;;;;;;;;;;3.68;100.00;98476.44;107611;1264;59735;-67
2022/10/29 02:30:34;;;;;;;;;;;;;;;3.68;100.00;98478.02;107653;1265;59779;-67
2022/10/29 02:33:03;;;;;;;;;;;;;;;3.66;100.00;98475.98;107669;1264;70470;-67
2022/10/29 02:35:34;;;;;;;;;;;;;;;3.65;100.00;98480.15;107662;1268;69062;-69
2022/10/29 02:38:04;;;;;;;;;;;;;;;3.67;100.00;98475.60;107656;1268;69141;-68
2022/10/29 02:40:34;;;;;;;;;;;;;;;3.70;100.00;98474.16;107637;1264;59700;-68
2022/10/29 02:43:04;;;;;;;;;;;;;;;3.72;100.00;98473.77;107658;1264;59741;-68
2022/10/29 02:45:34;;;;;;;;;;;;;;;3.74;100.00;98475.23;107683;1266;71417;-68
2022/10/29 02:48:03;;;;;;;;;;;;;;;3.77;100.00;98478.62;107678;1266;68308;-68
2022/10/29 02:50:33;;;;;;;;;;;;;;;3.81;100.00;98479.70;107647;1264;67401;-68
2022/10/29 02:53:03;;;;;;;;;;;;;;;3.85;100.00;98484.60;107639;1268;59770;-68
2022/10/29 02:55:34;;;;;;;;;;;;;;;3.85;100.00;98485.27;107695;1264;59703;-68
2022/10/29 02:58:03;;;;;;;;;;;;;;;3.83;100.00;98492.23;107716;1264;70741;-68
2022/10/29 03:00:33;;;;;;;;;;;;;;;3.80;100.00;98488.52;107629;1268;68401;-68
2022/10/29 03:03:02;;;;;;;;;;;;;;;3.80;100.00;98485.25;107640;1264;69279;-68
2022/10/29 03:05:33;;;;;;;;;;;;;;;3.76;100.00;98482.45;107662;1265;59753;-68
2022/10/29 03:08:02;;;;;;;;;;;;;;;3.70;100.00;98477.44;107643;1266;59788;-68
2022/10/29 03:10:32;;;;;;;;;;;;;;;3.66;100.00;98477.73;107623;1265;71496;-68
2022/10/29 03:13:02;;;;;;;;;;;;;;;3.64;100.00;98480.19;107657;1266;68453;-69
2022/10/29 03:15:31;;;;;;;;;;;;;;;3.62;100.00;98476.79;107647;1268;68516;-69
2022/10/29 03:18:01;;;;;;;;;;;;;;;3.63;100.00;98477.63;107632;1265;59711;-70
2022/10/29 03:20:30;;;;;;;;;;;;;;;3.66;100.00;98477.20;107680;1268;59726;-69
2022/10/29 03:23:00;;;;;;;;;;;;;;;3.69;100.00;98478.32;107630;1268;71416;-70
2022/10/29 03:25:30;;;;;;;;;;;;;;;3.71;100.00;98477.42;107680;1264;68536;-69
2022/10/29 03:27:59;;;;;;;;;;;;;;;3.73;100.00;98476.83;107645;1268;69330;-69
2022/10/29 03:30:28;;;;;;;;;;;;;;;3.74;100.00;98475.23;107636;1268;59789;-69
2022/10/29 03:32:57;;;;;;;;;;;;;;;3.72;100.00;98470.29;107707;1265;59670;-69
2022/10/29 03:35:27;;;;;;;;;;;;;;;3.70;100.00;98469.34;107658;1265;71414;-69
2022/10/29 03:37:56;;;;;;;;;;;;;;;3.71;100.00;98472.39;107681;1269;69243;-69
2022/10/29 03:40:26;;;;;;;;;;;;;;;3.75;100.00;98472.13;107640;1264;69263;-69
2022/10/29 03:42:55;;;;;;;;;;;;;;;3.79;100.00;98469.77;107638;1264;59797;-69
2022/10/29 03:45:25;;;;;;;;;;;;;;;3.81;100.00;98469.71;107616;1268;59730;-69
2022/10/29 03:47:54;;;;;;;;;;;;;;;3.83;100.00;98472.40;107633;1267;71254;-69
2022/10/29 03:50:23;;;;;;;;;;;;;;;3.86;100.00;98468.02;107704;1268;69158;-69
2022/10/29 03:52:53;;;;;;;;;;;;;;;3.90;100.00;98469.45;107602;1268;69140;-69
2022/10/29 03:55:22;;;;;;;;;;;;;;;3.92;100.00;98467.48;107604;1265;60154;-69
2022/10/29 03:57:51;;;;;;;;;;;;;;;3.95;100.00;98466.20;107631;1268;59673;-69
2022/10/29 04:00:22;;;;;;;;;;;;;;;3.97;100.00;98468.19;107662;1268;71279;-69
2022/10/29 04:02:51;;;;;;;;;;;;;;;4.00;100.00;98468.95;107656;1268;69958;-69
2022/10/29 04:05:21;;;;;;;;;;;;;;;3.98;100.00;98466.95;107633;1264;68687;-69
2022/10/29 04:07:50;;;;;;;;;;;;;;;3.95;100.00;98468.09;107614;1268;59712;-69
2022/10/29 04:10:20;;;;;;;;;;;;;;;3.89;100.00;98472.58;107642;1268;59703;-69
2022/10/29 04:12:49;;;;;;;;;;;;;;;3.87;100.00;98471.05;107651;1268;72187;-69
2022/10/29 04:15:18;;;;;;;;;;;;;;;3.84;100.00;98471.34;107649;1268;69172;-69
2022/10/29 04:17:49;;;;;;;;;;;;;;;3.81;100.00;98472.79;107673;1268;69233;-69
2022/10/29 04:20:17;;;;;;;;;;;;;;;3.84;100.00;98473.76;107643;1269;59748;-69
2022/10/29 04:23:06;;;;;;;;;;;;;;;3.84;100.00;98472.89;107639;1268;59732;-69
2022/10/29 04:25:57;;;;;;;;;;;;;;;3.83;100.00;98470.66;107671;1264;71491;-69
2022/10/29 04:28:47;;;;;;;;;;;;;;;3.82;100.00;98476.21;107602;1264;69894;-69
2022/10/29 04:31:17;;;;;;;;;;;;;;;3.82;100.00;98476.23;107639;1264;69282;-68
2022/10/29 04:33:46;;;;;;;;;;;;;;;3.83;100.00;98473.10;107640;1265;59766;-69
2022/10/29 04:36:15;;;;;;;;;;;;;;;3.85;100.00;98468.23;107678;1264;59767;-68
2022/10/29 04:38:44;;;;;;;;;;;;;;;3.86;100.00;98470.91;107646;1265;71705;-69
2022/10/29 04:41:13;;;;;;;;;;;;;;;3.90;100.00;98471.52;107667;1268;69153;-69
2022/10/29 04:43:42;;;;;;;;;;;;;;;3.91;100.00;98467.52;107641;1268;69322;-68
2022/10/29 04:46:11;;;;;;;;;;;;;;;3.91;100.00;98473.55;107664;1266;59731;-69
2022/10/29 04:48:40;;;;;;;;;;;;;;;3.91;100.00;98476.81;107662;1268;59763;-69
2022/10/29 04:51:20;;;;;;;;;;;;;;;3.93;100.00;98471.94;107663;1266;71031;-68
2022/10/29 04:53:48;;;;;;;;;;;;;;;3.96;100.00;98473.23;107656;1268;69314;-68
2022/10/29 04:56:18;;;;;;;;;;;;;;;3.99;100.00;98467.98;107665;1264;69143;-68
2022/10/29 04:58:51;;;;;;;;;;;;;;;4.00;100.00;98473.44;107664;1266;59714;-69
2022/10/29 05:01:19;;;;;;;;;;;;;;;4.02;100.00;98479.25;107671;1265;59763;-69
2022/10/29 05:03:49;;;;;;;;;;;;;;;4.04;100.00;98481.79;107662;1269;71457;-68
2022/10/29 05:06:24;;;;;;;;;;;;;;;4.07;100.00;98488.25;107633;1265;69527;-69
2022/10/29 05:08:53;;;;;;;;;;;;;;;4.10;100.00;98494.20;107657;1269;69371;-69
2022/10/29 05:11:22;;;;;;;;;;;;;;;4.15;100.00;98496.65;107657;1269;59796;-69
2022/10/29 05:13:50;;;;;;;;;;;;;;;4.19;100.00;98500.31;107667;1268;59692;-69
2022/10/29 05:16:19;;;;;;;;;;;;;;;4.19;100.00;98502.04;107653;1268;71772;-68
2022/10/29 05:18:48;;;;;;;;;;;;;;;4.21;100.00;98502.18;107714;1266;69234;-68
2022/10/29 05:21:17;;;;;;;;;;;;;;;4.19;100.00;98506.36;107677;1269;68515;-68
2022/10/29 05:23:46;;;;;;;;;;;;;;;4.19;100.00;98504.64;107682;1268;59753;-68
2022/10/29 05:26:14;;;;;;;;;;;;;;;4.19;100.00;98507.39;107661;1266;59761;-69
2022/10/29 05:28:43;;;;;;;;;;;;;;;4.21;100.00;98512.02;107670;1268;71471;-69
2022/10/29 05:31:12;;;;;;;;;;;;;;;4.23;100.00;98515.40;107634;1264;69817;-68
2022/10/29 05:33:41;;;;;;;;;;;;;;;4.26;100.00;98515.98;107619;1268;69568;-68
2022/10/29 05:36:10;;;;;;;;;;;;;;;4.31;100.00;98515.66;107631;1268;59732;-68
2022/10/29 05:38:38;;;;;;;;;;;;;;;4.33;100.00;98517.83;107659;1267;59668;-69
2022/10/29 05:41:07;;;;;;;;;;;;;;;4.36;100.00;98519.14;107616;1265;71681;-68
2022/10/29 05:43:35;;;;;;;;;;;;;;;4.40;100.00;98519.20;107673;1268;69882;-69
2022/10/29 05:46:04;;;;;;;;;;;;;;;4.44;100.00;98518.39;107654;1264;69561;-71
2022/10/29 05:48:32;;;;;;;;;;;;;;;4.47;100.00;98518.45;107627;1264;59766;-69
2022/10/29 05:51:01;;;;;;;;;;;;;;;4.50;100.00;98518.19;107638;1268;59711;-69
2022/10/29 05:53:30;;;;;;;;;;;;;;;4.52;100.00;98524.85;107632;1270;71406;-70
2022/10/29 05:55:58;;;;;;;;;;;;;;;4.56;100.00;98524.20;107629;1268;69982;-67
2022/10/29 05:58:27;;;;;;;;;;;;;;;4.62;100.00;98519.20;107641;1268;69313;-68
2022/10/29 06:00:56;;;;;;;;;;;;;;;4.67;100.00;98514.56;107618;1266;59715;-68
2022/10/29 06:03:24;;;;;;;;;;;;;;;4.73;100.00;98509.02;107620;1268;60175;-68
2022/10/29 06:05:53;;;;;;;;;;;;;;;4.79;100.00;98519.36;107664;1268;70337;-68
2022/10/29 06:08:21;;;;;;;;;;;;;;;4.86;100.00;98522.59;107702;1268;70499;-68
2022/10/29 06:10:50;;;;;;;;;;;;;;;4.95;100.00;98516.45;107583;1269;67803;-69
2022/10/29 06:13:19;;;;;;;;;;;;;;;5.02;100.00;98512.93;107630;1268;59694;-68
2022/10/29 06:15:48;;;;;;;;;;;;;;;5.10;100.00;98508.66;107683;1268;59749;-69
2022/10/29 06:18:17;;;;;;;;;;;;;;;5.20;100.00;98505.59;107680;1268;71391;-69
2022/10/29 06:20:46;;;;;;;;;;;;;;;5.31;100.00;98507.10;107672;1268;68420;-69
2022/10/29 06:23:14;;;;;;;;;;;;;;;5.38;100.00;98510.67;107608;1268;70119;-69
2022/10/29 06:25:43;;;;;;;;;;;;;;;5.46;100.00;98516.10;107639;1268;59763;-69
2022/10/29 06:28:17;;;;;;;;;;;;;;;5.58;100.00;98516.20;107671;1268;59703;-70
2022/10/29 06:30:49;;;;;;;;;;;;;;;5.69;100.00;98520.30;107668;1268;71260;-70
2022/10/29 06:33:18;;;;;;;;;;;;;;;5.80;100.00;98517.66;107661;1269;69782;-69
2022/10/29 06:35:47;;;;;;;;;;;;;;;5.89;100.00;98522.18;107622;1268;68570;-69
2022/10/29 06:38:15;;;;;;;;;;;;;;;5.99;100.00;98520.29;107664;1268;59702;-69
2022/10/29 06:40:50;;;;;;;;;;;;;;;6.09;100.00;98526.34;107633;1268;59805;-69
2022/10/29 06:43:19;;;;;;;;;;;;;;;6.18;100.00;98527.23;107678;1268;71889;-71
2022/10/29 06:45:48;;;;;;;;;;;;;;;6.27;99.92;98529.27;107653;1269;68452;-70
2022/10/29 06:48:17;;;;;;;;;;;;;;;6.41;99.83;98530.01;107658;1265;69447;-70
2022/10/29 06:50:50;;;;;;;;;;;;;;;6.49;99.13;98527.39;107631;1269;59629;-70
2022/10/29 06:53:18;;;;;;;;;;;;;;;6.61;98.72;98535.08;107651;1268;59703;-69
2022/10/29 06:55:48;;;;;;;;;;;;;;;6.72;98.10;98533.45;107671;1268;71517;-70
2022/10/29 06:58:17;;;;;;;;;;;;;;;6.90;98.04;98539.48;107667;1264;69815;-70
2022/10/29 07:00:46;;;;;;;;;;;;;;;7.12;97.30;98535.64;107648;1268;69750;-71
2022/10/29 07:03:16;;;;;;;;;;;;;;;7.38;96.27;98530.42;107670;1268;60193;-69
2022/10/29 07:05:45;;;;;;;;;;;;;;;7.57;94.89;98528.38;107710;1269;59677;-69
2022/10/29 07:08:13;;;;;;;;;;;;;;;7.56;93.89;98526.88;107716;1268;72377;-69
2022/10/29 07:10:41;;;;;;;;;;;;;;;7.78;94.18;98524.20;107633;1266;69232;-69
2022/10/29 07:13:10;;;;;;;;;;;;;;;7.97;93.46;98528.04;107621;1268;70013;-70
2022/10/29 07:15:38;;;;;;;;;;;;;;;8.08;92.45;98520.60;107635;1269;59772;-70
2022/10/29 07:18:07;;;;;;;;;;;;;;;8.20;91.48;98522.34;107639;1269;59665;-70
2022/10/29 07:20:37;;;;;;;;;;;;;;;8.31;91.45;98520.95;107654;1264;71714;-70
2022/10/29 07:23:06;;;;;;;;;;;;;;;8.70;91.11;98516.37;107667;1265;69844;-69
2022/10/29 07:25:36;;;;;;;;;;;;;;;9.07;87.23;98512.98;107619;1270;69394;-69
2022/10/29 07:28:15;;;;;;;;;;;;;;;9.52;85.94;98509.53;107319;1268;473300;-69
2022/10/29 07:30:44;;;;;;;;;;;;;;;10.07;87.57;98512.60;107709;1268;59773;-69
2022/10/29 07:33:13;;;;;;;;;;;;;;;10.42;83.82;98514.41;107673;1266;71422;-69
2022/10/29 07:35:42;;;;;;;;;;;;;;;10.75;85.49;98512.00;107682;1266;69198;-69
2022/10/29 07:38:11;;;;;;;;;;;;;;;11.07;80.42;98514.75;107644;1264;69436;-69
2022/10/29 07:40:45;;;;;;;;;;;;;;;11.46;76.83;98510.89;107661;1268;59766;-69
2022/10/29 07:43:14;;;;;;;;;;;;;;;11.97;74.82;98512.57;107651;1269;59712;-69
2022/10/29 07:45:44;;;;;;;;;;;;;;;12.39;72.38;98513.52;107648;1268;70615;-69
2022/10/29 07:48:12;;;;;;;;;;;;;;;12.86;71.60;98515.06;107627;1265;69877;-70
2022/10/29 07:50:41;;;;;;;;;;;;;;;13.49;73.02;98514.06;107632;1268;69488;-71
2022/10/29 07:53:10;;;;;;;;;;;;;;;13.82;68.52;98513.55;107629;1269;59711;-71
2022/10/29 07:55:38;;;;;;;;;;;;;;;14.25;66.30;98513.38;107660;1264;59721;-70
2022/10/29 07:58:09;;;;;;;;;;;;;;;14.54;64.43;98517.36;107653;1264;71623;-70
2022/10/29 08:00:40;;;;;;;;;;;;;;;14.57;64.25;98524.48;107645;1268;69771;-70
2022/10/29 08:03:10;;;;;;;;;;;;;;;14.18;64.11;98524.42;107611;1269;69276;-71
2022/10/29 08:05:39;;;;;;;;;;;;;;;14.43;63.81;98530.58;107641;1268;59695;-71
2022/10/29 08:08:10;;;;;;;;;;;;;;;14.68;62.84;98528.58;107665;1268;59871;-68
2022/10/29 08:10:38;;;;;;;;;;;;;;;15.49;62.80;98520.20;107661;1265;71421;-68
2022/10/29 08:13:07;;;;;;;;;;;;;;;16.10;61.85;98521.38;107678;1269;69755;-70
2022/10/29 08:15:35;;;;;;;;;;;;;;;16.61;61.34;98523.84;107610;1271;70400;-70
2022/10/29 08:18:08;;;;;;;;;;;;;;;16.77;58.31;98527.85;107607;1268;59699;-71
2022/10/29 08:20:36;;;;;;;;;;;;;;;16.79;56.62;98522.55;107658;1269;59680;-71
2022/10/29 08:23:05;;;;;;;;;;;;;;;17.29;57.18;98521.73;107629;1264;71082;-71
2022/10/29 08:25:37;;;;;;;;;;;;;;;17.38;56.55;98517.98;107652;1269;69868;-71
2022/10/29 08:28:07;;;;;;;;;;;;;;;17.75;55.49;98514.67;107641;1269;69899;-71
2022/10/29 08:30:36;;;;;;;;;;;;;;;17.72;54.54;98511.95;107652;1269;59779;-71
2022/10/29 08:33:05;;;;;;;;;;;;;;;17.13;55.72;98512.80;107628;1264;59722;-70
2022/10/29 08:35:33;;;;;;;;;;;;;;;16.97;55.69;98509.19;107629;1269;70863;-70
2022/10/29 08:38:02;;;;;;;;;;;;;;;17.56;55.19;98507.48;107670;1267;69230;-69
2022/10/29 08:40:30;;;;;;;;;;;;;;;18.14;53.89;98505.30;107656;1264;68521;-70
2022/10/29 08:43:14;;;;;;;;;;;;;;;18.16;53.46;98501.86;107677;1268;59765;-70
2022/10/29 08:45:50;;;;;;;;;;;;;;;18.28;53.23;98500.75;107726;1265;59706;-69
2022/10/29 08:48:24;;;;;;;;;;;;;;;18.61;51.59;98501.75;107699;1270;71395;-70
2022/10/29 08:51:19;;;;;;;;;;;;;;;18.90;51.12;98500.61;107597;1269;69525;-70
2022/10/29 08:53:52;;;;;;;;;;;;;;;19.22;49.57;98494.95;107635;1269;69488;-70
2022/10/29 08:56:52;;;;;;;;;;;;;;;19.07;51.11;98491.31;107627;1269;59730;-69
2022/10/29 08:59:27;;;;;;;;;;;;;;;19.50;49.39;98495.31;107674;1268;59763;-70
2022/10/29 09:01:55;;;;;;;;;;;;;;;19.59;49.20;98491.65;107672;1269;71417;-70
2022/10/29 09:04:26;;;;;;;;;;;;;;;19.44;48.97;98484.02;107657;1268;68608;-70
2022/10/29 09:07:13;;;;;;;;;;;;;;;19.81;49.43;98484.17;107626;1265;70033;-70
2022/10/29 09:10:10;;;;;;;;;;;;;;;20.24;48.24;98480.64;107622;1269;59762;-71
2022/10/29 09:12:38;;;;;;;;;;;;;;;20.19;48.25;98477.40;107641;1268;60235;-70
2022/10/29 09:15:20;;;;;;;;;;;;;;;20.41;47.05;98481.14;107621;1268;71800;-71
2022/10/29 09:17:49;;;;;;;;;;;;;;;20.98;46.70;98476.60;107621;1269;68867;-72
2022/10/29 09:20:17;;;;;;;;;;;;;;;21.42;46.00;98475.84;107683;1264;68390;-72
2022/10/29 09:22:55;;;;;;;;;;;;;;;21.65;45.91;98473.98;107645;1268;59768;-70
2022/10/29 09:25:24;;;;;;;;;;;;;;;22.50;44.74;98474.16;107652;1269;59661;-71
2022/10/29 09:28:07;;;;;;;;;;;;;;;22.76;42.64;98470.11;107692;1269;70468;-71
2022/10/29 09:30:53;;;;;;;;;;;;;;;22.75;42.33;98469.20;107757;1265;69226;-70
2022/10/29 09:33:23;;;;;;;;;;;;;;;22.04;43.04;98466.97;107637;1270;68518;-71
2022/10/29 09:35:56;;;;;;;;;;;;;;;22.02;43.49;98460.15;107617;1268;59705;-71
2022/10/29 09:38:29;;;;;;;;;;;;;;;21.85;43.86;98458.45;107698;1268;59665;-70
2022/10/29 09:40:59;;;;;;;;;;;;;;;21.76;44.18;98458.35;107654;1269;72138;-71
2022/10/29 09:43:31;;;;;;;;;;;;;;;21.69;44.39;98452.84;107688;1269;69097;-71
2022/10/29 09:46:05;;;;;;;;;;;;;;;22.40;42.91;98449.38;107646;1269;69294;-71
2022/10/29 09:48:39;;;;;;;;;;;;;;;22.28;42.62;98445.20;107681;1267;59671;-70
2022/10/29 09:51:14;;;;;;;;;;;;;;;22.33;42.01;98446.59;107619;1270;59857;-71
2022/10/29 09:53:42;;;;;;;;;;;;;;;21.68;43.39;98441.57;107591;1270;71700;-71
2022/10/29 09:56:11;;;;;;;;;;;;;;;21.14;44.72;98442.79;107645;1267;69684;-71
2022/10/29 09:58:43;;;;;;;;;;;;;;;21.93;43.57;98441.50;107629;1273;69298;-70
2022/10/29 10:01:12;;;;;;;;;;;;;;;22.05;42.45;98437.11;107623;1271;59706;-71
2022/10/29 10:03:45;;;;;;;;;;;;;;;21.96;43.34;98431.59;107613;1270;59710;-71
2022/10/29 10:06:15;;;;;;;;;;;;;;;22.35;42.72;98427.00;107637;1266;71681;-70
2022/10/29 10:09:04;;;;;;;;;;;;;;;21.97;43.05;98419.42;107676;1270;68448;-70
2022/10/29 10:11:43;;;;;;;;;;;;;;;22.22;43.09;98421.81;107702;1269;69999;-71
2022/10/29 10:14:19;;;;;;;;;;;;;;;22.41;42.33;98410.09;107682;1270;59788;-70
2022/10/29 10:16:57;;;;;;;;;;;;;;;22.69;42.43;98409.04;107653;1268;60172;-71
2022/10/29 10:19:27;;;;;;;;;;;;;;;22.95;41.35;98404.77;107624;1269;70953;-72
2022/10/29 10:22:03;;;;;;;;;;;;;;;23.37;41.09;98403.67;107679;1270;68266;-70
2022/10/29 10:24:34;;;;;;;;;;;;;;;23.66;39.36;98401.34;107590;1271;70057;-71
2022/10/29 10:27:17;;;;;;;;;;;;;;;23.21;40.15;98397.95;107772;1268;59763;-70
2022/10/29 10:30:09;;;;;;;;;;;;;;;23.22;40.70;98398.89;107666;1268;59735;-70
2022/10/29 10:32:38;;;;;;;;;;;;;;;22.96;41.11;98396.40;107650;1270;71883;-71
2022/10/29 10:35:32;;;;;;;;;;;;;;;23.83;39.99;98401.02;107647;1270;68746;-72
2022/10/29 10:38:08;;;;;;;;;;;;;;;24.22;38.29;98394.88;107653;1265;69954;-71
2022/10/29 10:40:37;;;;;;;;;;;;;;;24.54;38.03;98388.49;107652;1270;59781;-71
2022/10/29 10:43:17;;;;;;;;;;;;;;;24.96;37.75;98381.88;107678;1265;59743;-70
2022/10/29 10:45:51;;;;;;;;;;;;;;;25.05;36.79;98380.66;107653;1269;71771;-71
2022/10/29 10:48:21;;;;;;;;;;;;;;;25.12;37.41;98377.92;107671;1271;70226;-71
2022/10/29 10:50:50;;;;;;;;;;;;;;;24.99;37.27;98378.70;107584;1271;69762;-71
2022/10/29 10:53:21;;;;;;;;;;;;;;;24.45;37.93;98380.14;107622;1271;59720;-69
2022/10/29 10:55:51;;;;;;;;;;;;;;;24.13;38.21;98378.45;107838;1270;59710;-70
2022/10/29 10:58:20;;;;;;;;;;;;;;;24.58;37.14;98377.58;107751;1264;71604;-72
2022/10/29 11:01:08;;;;;;;;;;;;;;;24.53;37.01;98379.24;107626;1269;68585;-73
2022/10/29 11:03:42;;;;;;;;;;;;;;;24.81;37.89;98370.29;107722;1270;69947;-73
2022/10/29 11:06:21;;;;;;;;;;;;;;;25.19;36.05;98370.63;107703;1266;59833;-73
2022/10/29 11:09:00;;;;;;;;;;;;;;;25.32;35.63;98366.42;107708;1270;59834;-71
2022/10/29 11:11:31;;;;;;;;;;;;;;;26.18;35.29;98365.45;107668;1270;71834;-70
2022/10/29 11:14:02;;;;;;;;;;;;;;;25.96;34.50;98366.77;107680;1269;69902;-71
2022/10/29 11:16:45;;;;;;;;;;;;;;;25.60;35.17;98360.80;107658;1270;69180;-73
2022/10/29 11:19:18;;;;;;;;;;;;;;;24.91;36.35;98357.65;107642;1269;59729;-70
2022/10/29 11:22:19;;;;;;;;;;;;;;;24.60;37.08;98357.94;107640;1269;59715;-71
2022/10/29 11:24:56;;;;;;;;;;;;;;;25.60;35.04;98348.49;107464;1272;71240;-71
2022/10/29 11:27:43;;;;;;;;;;;;;;;25.11;35.48;98343.38;107681;1269;69932;-71
2022/10/29 11:30:13;;;;;;;;;;;;;;;25.43;34.83;98340.38;107627;1268;69744;-70
2022/10/29 11:32:51;;;;;;;;;;;;;;;25.53;35.36;98338.39;107679;1269;59774;-71
2022/10/29 11:35:38;;;;;;;;;;;;;;;25.96;34.55;98337.65;107816;1269;59765;-71
2022/10/29 11:38:29;;;;;;;;;;;;;;;25.75;34.36;98338.08;107666;1269;70743;-71
2022/10/29 11:40:57;;;;;;;;;;;;;;;26.19;33.71;98339.39;107740;1268;68358;-71
2022/10/29 11:43:26;;;;;;;;;;;;;;;26.13;33.37;98342.20;107627;1269;69278;-71
2022/10/29 11:46:00;;;;;;;;;;;;;;;26.11;33.18;98338.05;107704;1268;59738;-72
2022/10/29 11:48:29;;;;;;;;;;;;;;;26.06;33.13;98324.83;107653;1269;59728;-72
2022/10/29 11:51:00;;;;;;;;;;;;;;;26.15;33.24;98324.30;107703;1264;71185;-70
2022/10/29 11:53:35;;;;;;;;;;;;;;;26.45;32.52;98315.61;107669;1268;68817;-70
2022/10/29 11:56:17;;;;;;;;;;;;;;;26.28;32.15;98309.34;107714;1269;69757;-70
2022/10/29 11:58:55;;;;;;;;;;;;;;;24.65;34.48;98313.45;107670;1269;59730;-70
2022/10/29 12:01:31;;;;;;;;;;;;;;;25.39;33.77;98307.74;107691;1270;59689;-70
2022/10/29 12:04:03;;;;;;;;;;;;;;;25.73;32.90;98304.56;107661;1270;72100;-70
2022/10/29 12:06:38;;;;;;;;;;;;;;;25.85;32.98;98302.77;107755;1271;69578;-71
2022/10/29 12:09:09;;;;;;;;;;;;;;;25.55;33.48;98299.81;107695;1265;69182;-69
2022/10/29 12:11:37;;;;;;;;;;;;;;;24.33;35.09;98298.07;107632;1272;60077;-70
2022/10/29 12:14:34;;;;;;;;;;;;;;;23.86;36.05;98299.44;107620;1273;59698;-70
2022/10/29 12:17:25;;;;;;;;;;;;;;;23.60;36.49;98303.30;107666;1269;71907;-70
2022/10/29 12:20:02;;;;;;;;;;;;;;;23.07;37.83;98305.71;107646;1266;69902;-70
2022/10/29 12:22:39;;;;;;;;;;;;;;;22.59;38.28;98301.23;107639;1269;68280;-70
2022/10/29 12:25:17;;;;;;;;;;;;;;;22.95;38.11;98303.20;107690;1270;59692;-72
2022/10/29 12:27:48;;;;;;;;;;;;;;;23.02;38.02;98297.40;107681;1262;59771;-70
2022/10/29 12:30:17;;;;;;;;;;;;;;;23.94;36.85;98297.14;107597;1270;72059;-70
2022/10/29 12:32:51;;;;;;;;;;;;;;;24.32;36.04;98295.66;107654;1270;69031;-70
2022/10/29 12:35:32;;;;;;;;;;;;;;;24.83;35.51;98293.38;107612;1271;69129;-70
2022/10/29 12:38:22;;;;;;;;;;;;;;;25.11;34.79;98295.98;107607;1271;59722;-70
2022/10/29 12:40:55;;;;;;;;;;;;;;;25.47;34.02;98285.45;107498;1270;59695;-70
2022/10/29 12:43:32;;;;;;;;;;;;;;;25.79;33.38;98285.33;107644;1270;71392;-70
2022/10/29 12:46:17;;;;;;;;;;;;;;;25.98;32.75;98285.35;107526;1270;68221;-70
2022/10/29 12:48:50;;;;;;;;;;;;;;;25.57;33.89;98285.64;107449;1270;69743;-71
2022/10/29 12:51:37;;;;;;;;;;;;;;;25.76;34.05;98286.48;107596;1274;59745;-71
2022/10/29 12:54:18;;;;;;;;;;;;;;;25.59;33.58;98286.43;107711;1270;59739;-71
2022/10/29 12:56:47;;;;;;;;;;;;;;;26.13;33.37;98282.56;107550;1270;71991;-71
2022/10/29 12:59:24;;;;;;;;;;;;;;;26.53;33.09;98270.05;107669;1274;69800;-72
2022/10/29 13:01:53;;;;;;;;;;;;;;;26.00;33.39;98269.80;107668;1270;69729;-70
2022/10/29 13:04:58;;;;;;;;;;;;;;;25.39;34.29;98266.05;107662;1273;59712;-71
2022/10/29 13:07:27;;;;;;;;;;;;;;;25.97;33.63;98267.66;107413;1271;59748;-71